Time;durP1;ratioP1;P1;durP2;ratioP2;P2;SDS_P1;SDS_P2;PMS_P1;PMS_P2;Temp;Humidity;BMP_temperature;BMP_pressure;BME280_temperature;BME280_humidity;BME280_pressure;Samples;Min_cycle;Max_cycle;Signal;HPM_P1;HPM_P2
2022/06/06 00:01:40;;;;;;;27.10;21.30;;;;;;;;;;4997329;28;20387;-57
2022/06/06 00:04:06;;;;;;;28.17;22.02;;;;;;;;;;4994574;28;20434;-57
2022/06/06 00:06:32;;;;;;;27.33;21.63;;;;;;;;;;4996698;28;20416;-57
2022/06/06 00:08:59;;;;;;;27.45;22.33;;;;;;;;;;4996546;28;20412;-57
2022/06/06 00:11:25;;;;;;;29.70;22.73;;;;;;;;;;4995254;28;20473;-57
2022/06/06 00:13:51;;;;;;;26.45;21.83;;;;;;;;;;4994688;28;20517;-57
2022/06/06 00:16:17;;;;;;;29.45;22.88;;;;;;;;;;4998248;28;20425;-56
2022/06/06 00:18:43;;;;;;;27.45;21.80;;;;;;;;;;4996009;28;20386;-56
2022/06/06 00:21:10;;;;;;;27.25;21.33;;;;;;;;;;4995604;28;20375;-57
2022/06/06 00:23:36;;;;;;;26.93;21.60;;;;;;;;;;4994097;28;20428;-57
2022/06/06 00:26:04;;;;;;;27.33;21.13;;;;;;;;;;4989868;28;20405;-56
2022/06/06 00:28:30;;;;;;;28.50;21.48;;;;;;;;;;4996206;28;20412;-57
2022/06/06 00:30:57;;;;;;;26.13;20.85;;;;;;;;;;4995403;28;20413;-57
2022/06/06 00:36:08;;;;;;;25.17;20.27;;;;;;;;;;4995617;28;20492;-57
2022/06/06 00:38:34;;;;;;;28.50;20.83;;;;;;;;;;4995739;28;20394;-56
2022/06/06 00:40:59;;;;;;;25.80;19.90;;;;;;;;;;4994022;28;20517;-57
2022/06/06 00:43:26;;;;;;;25.85;19.70;;;;;;;;;;4994587;28;20887;-57
2022/06/06 00:45:52;;;;;;;26.27;19.83;;;;;;;;;;4995540;28;20478;-57
2022/06/06 00:48:22;;;;;;;25.33;18.85;;;;;;;;;;4994342;28;20418;-57
2022/06/06 00:50:51;;;;;;;24.17;18.65;;;;;;;;;;4994884;28;20444;-56
2022/06/06 00:53:18;;;;;;;25.20;19.33;;;;;;;;;;4997560;28;20456;-56
2022/06/06 00:55:46;;;;;;;21.33;18.10;;;;;;;;;;4998064;28;21205;-56
2022/06/06 00:58:16;;;;;;;23.90;17.63;;;;;;;;;;4997244;28;20499;-56
2022/06/06 01:00:43;;;;;;;20.58;17.50;;;;;;;;;;4997348;28;20780;-56
2022/06/06 01:03:09;;;;;;;21.15;15.63;;;;;;;;;;4999035;28;20416;-56
2022/06/06 01:05:35;;;;;;;20.52;16.02;;;;;;;;;;5002494;28;20477;-57
2022/06/06 01:08:03;;;;;;;17.27;15.02;;;;;;;;;;4997079;28;20429;-55
2022/06/06 01:10:29;;;;;;;21.60;15.47;;;;;;;;;;4998404;28;20393;-56
2022/06/06 01:12:55;;;;;;;18.40;14.10;;;;;;;;;;4996368;28;20406;-57
2022/06/06 01:15:22;;;;;;;21.80;15.43;;;;;;;;;;4998955;28;20406;-57
2022/06/06 01:17:57;;;;;;;18.75;14.32;;;;;;;;;;4999327;28;20404;-56
2022/06/06 01:20:36;;;;;;;17.48;14.48;;;;;;;;;;4996154;28;20418;-56
2022/06/06 01:23:02;;;;;;;18.67;13.85;;;;;;;;;;5001706;28;20450;-56
2022/06/06 01:25:34;;;;;;;17.85;14.15;;;;;;;;;;4997463;28;20433;-56
2022/06/06 01:28:02;;;;;;;16.50;13.10;;;;;;;;;;4997543;28;20410;-56
2022/06/06 01:30:30;;;;;;;17.73;13.10;;;;;;;;;;4999694;28;20747;-56
2022/06/06 01:32:57;;;;;;;16.35;13.20;;;;;;;;;;5003063;28;20386;-56
2022/06/06 01:35:24;;;;;;;18.00;13.80;;;;;;;;;;5002262;28;20924;-56
2022/06/06 01:37:50;;;;;;;14.85;12.70;;;;;;;;;;4998747;28;20428;-56
2022/06/06 01:40:16;;;;;;;17.40;13.40;;;;;;;;;;4997666;28;20467;-56
2022/06/06 01:43:03;;;;;;;18.65;13.18;;;;;;;;;;5002802;28;20413;-57
2022/06/06 01:45:36;;;;;;;16.38;12.80;;;;;;;;;;4995280;28;20901;-55
2022/06/06 01:48:07;;;;;;;13.85;11.32;;;;;;;;;;4996559;28;20388;-56
2022/06/06 01:50:33;;;;;;;14.88;11.93;;;;;;;;;;5002515;28;20450;-56
2022/06/06 01:53:00;;;;;;;16.20;11.82;;;;;;;;;;5004436;28;20466;-57
2022/06/06 01:55:26;;;;;;;14.30;11.20;;;;;;;;;;4998578;28;20479;-56
2022/06/06 01:57:53;;;;;;;15.90;11.70;;;;;;;;;;4995489;28;20526;-56
2022/06/06 02:00:19;;;;;;;13.05;10.60;;;;;;;;;;5001588;28;20471;-56
2022/06/06 02:02:45;;;;;;;13.52;10.32;;;;;;;;;;4997027;28;20437;-56
2022/06/06 02:05:11;;;;;;;11.50;9.57;;;;;;;;;;4996832;28;20450;-56
2022/06/06 02:07:38;;;;;;;11.35;9.27;;;;;;;;;;4996288;28;20413;-56
2022/06/06 02:10:05;;;;;;;11.40;9.27;;;;;;;;;;4996867;28;20459;-56
2022/06/06 02:12:31;;;;;;;12.50;9.50;;;;;;;;;;5001486;28;20431;-56
2022/06/06 02:14:57;;;;;;;12.32;9.32;;;;;;;;;;4997661;28;20386;-56
2022/06/06 02:17:22;;;;;;;11.48;8.95;;;;;;;;;;4991710;28;20452;-56
2022/06/06 02:19:48;;;;;;;11.05;8.93;;;;;;;;;;4998390;28;20388;-57
2022/06/06 02:22:14;;;;;;;9.93;8.27;;;;;;;;;;4996221;28;20399;-57
2022/06/06 02:24:40;;;;;;;10.95;8.30;;;;;;;;;;4995905;28;20897;-56
2022/06/06 02:27:06;;;;;;;10.38;8.00;;;;;;;;;;4995202;28;20922;-57
2022/06/06 02:29:32;;;;;;;10.40;7.78;;;;;;;;;;4997108;28;20966;-55
2022/06/06 02:31:58;;;;;;;8.98;7.75;;;;;;;;;;4993978;28;20815;-56
2022/06/06 02:34:25;;;;;;;8.77;7.43;;;;;;;;;;4995811;28;20425;-56
2022/06/06 02:36:51;;;;;;;9.47;7.23;;;;;;;;;;4995141;28;20406;-55
2022/06/06 02:39:17;;;;;;;9.03;7.10;;;;;;;;;;4997983;28;20404;-56
2022/06/06 02:41:44;;;;;;;8.07;6.77;;;;;;;;;;4994980;28;20406;-56
2022/06/06 02:44:10;;;;;;;8.93;7.18;;;;;;;;;;4995887;28;20476;-57
2022/06/06 02:46:36;;;;;;;7.78;6.15;;;;;;;;;;4996705;28;20389;-56
2022/06/06 02:49:02;;;;;;;8.90;6.45;;;;;;;;;;4994703;28;20492;-56
2022/06/06 02:51:28;;;;;;;7.63;6.27;;;;;;;;;;5000525;28;20424;-56
2022/06/06 02:53:54;;;;;;;8.33;6.13;;;;;;;;;;4997240;28;20385;-56
2022/06/06 02:56:20;;;;;;;7.35;6.10;;;;;;;;;;4995337;28;20454;-55
2022/06/06 02:58:46;;;;;;;7.75;6.20;;;;;;;;;;4998645;28;20885;-56
2022/06/06 03:01:12;;;;;;;8.10;5.90;;;;;;;;;;4994732;28;20807;-56
2022/06/06 03:03:39;;;;;;;7.32;6.07;;;;;;;;;;4996944;28;20400;-56
2022/06/06 03:06:05;;;;;;;7.13;6.40;;;;;;;;;;4996949;28;20903;-56
2022/06/06 03:08:51;;;;;;;7.93;6.63;;;;;;;;;;4994930;28;20491;-56
2022/06/06 03:11:23;;;;;;;7.18;5.80;;;;;;;;;;4998780;28;20808;-57
2022/06/06 03:13:48;;;;;;;8.30;6.25;;;;;;;;;;4996204;28;20488;-57
2022/06/06 03:22:08;;;;;;;7.07;5.97;;;;;;;;;;4996599;28;20377;-56
2022/06/06 03:24:52;;;;;;;7.57;6.60;;;;;;;;;;5002319;28;20385;-57
2022/06/06 03:27:23;;;;;;;6.83;6.13;;;;;;;;;;4995816;28;20404;-56
2022/06/06 03:30:06;;;;;;;7.72;6.90;;;;;;;;;;5000190;28;20534;-57
2022/06/06 03:32:32;;;;;;;6.82;6.00;;;;;;;;;;4998797;28;20422;-56
2022/06/06 03:34:58;;;;;;;7.00;6.30;;;;;;;;;;4995228;28;20471;-56
2022/06/06 03:37:53;;;;;;;7.25;6.05;;;;;;;;;;4995717;28;20804;-57
2022/06/06 03:40:25;;;;;;;8.00;5.70;;;;;;;;;;4985914;28;20505;-56
2022/06/06 03:42:57;;;;;;;6.80;6.07;;;;;;;;;;4993364;28;20515;-56
2022/06/06 03:45:27;;;;;;;7.88;5.65;;;;;;;;;;4993007;28;20812;-57
2022/06/06 03:48:11;;;;;;;6.22;5.63;;;;;;;;;;4994296;28;20417;-57
2022/06/06 03:50:56;;;;;;;6.18;5.65;;;;;;;;;;4995942;28;20440;-57
2022/06/06 03:53:23;;;;;;;6.70;5.85;;;;;;;;;;4995517;28;20472;-56
2022/06/06 03:55:57;;;;;;;7.07;5.80;;;;;;;;;;5001213;28;20496;-57
2022/06/06 03:58:23;;;;;;;6.78;5.80;;;;;;;;;;5000761;28;20409;-57
2022/06/06 04:00:49;;;;;;;6.22;5.63;;;;;;;;;;4993922;28;20412;-56
2022/06/06 04:03:15;;;;;;;7.40;5.65;;;;;;;;;;4996474;28;20386;-56
2022/06/06 04:05:41;;;;;;;6.07;5.47;;;;;;;;;;4996894;28;20421;-56
2022/06/06 04:08:08;;;;;;;5.93;5.30;;;;;;;;;;4993647;28;20604;-57
2022/06/06 04:10:40;;;;;;;5.93;5.22;;;;;;;;;;4995642;28;20401;-55
2022/06/06 04:13:12;;;;;;;6.00;5.38;;;;;;;;;;4992281;28;20405;-56
2022/06/06 04:15:50;;;;;;;6.03;5.22;;;;;;;;;;4994508;28;20782;-56
2022/06/06 04:18:27;;;;;;;6.50;5.65;;;;;;;;;;4992239;28;20409;-56
2022/06/06 04:20:56;;;;;;;6.43;5.57;;;;;;;;;;4990629;28;20828;-55
2022/06/06 04:23:22;;;;;;;6.03;5.40;;;;;;;;;;4994625;28;20771;-55
2022/06/06 04:26:04;;;;;;;6.47;5.70;;;;;;;;;;4995627;28;20381;-56
2022/06/06 04:28:32;;;;;;;9.02;6.15;;;;;;;;;;4995883;28;20771;-56
2022/06/06 04:31:01;;;;;;;6.65;5.88;;;;;;;;;;5004739;28;20420;-56
2022/06/06 04:33:42;;;;;;;7.28;5.90;;;;;;;;;;4996356;28;20407;-55
2022/06/06 04:36:11;;;;;;;7.63;6.20;;;;;;;;;;4996150;28;20413;-55
2022/06/06 04:38:43;;;;;;;7.47;6.30;;;;;;;;;;4997288;28;20505;-56
2022/06/06 04:41:12;;;;;;;7.13;5.90;;;;;;;;;;5000319;28;20526;-56
2022/06/06 04:43:44;;;;;;;7.78;6.25;;;;;;;;;;4997698;28;20404;-56
2022/06/06 04:46:13;;;;;;;6.93;6.10;;;;;;;;;;4998770;28;20394;-56
2022/06/06 04:48:39;;;;;;;6.47;5.60;;;;;;;;;;4999946;28;20415;-55
2022/06/06 04:51:05;;;;;;;7.38;6.10;;;;;;;;;;4996755;28;20472;-56
2022/06/06 04:53:31;;;;;;;6.80;6.03;;;;;;;;;;4998580;28;20386;-56
2022/06/06 04:55:57;;;;;;;6.50;5.85;;;;;;;;;;5004138;28;20406;-55
2022/06/06 04:58:23;;;;;;;6.88;6.10;;;;;;;;;;4997097;28;20925;-55
2022/06/06 05:00:49;;;;;;;8.60;6.30;;;;;;;;;;5004533;28;20406;-56
2022/06/06 05:03:15;;;;;;;6.90;6.10;;;;;;;;;;4998874;28;20425;-56
2022/06/06 05:05:48;;;;;;;7.13;6.43;;;;;;;;;;4998808;28;20660;-56
2022/06/06 05:08:18;;;;;;;7.00;6.20;;;;;;;;;;5003404;28;20448;-56
2022/06/06 05:10:49;;;;;;;7.00;6.30;;;;;;;;;;5002008;28;20519;-56
2022/06/06 05:13:36;;;;;;;6.70;5.90;;;;;;;;;;4999078;28;20519;-56
2022/06/06 05:16:04;;;;;;;6.70;5.82;;;;;;;;;;4998147;28;20414;-56
2022/06/06 05:18:42;;;;;;;6.72;6.03;;;;;;;;;;4996577;28;20938;-56
2022/06/06 05:21:32;;;;;;;6.90;6.13;;;;;;;;;;4998894;28;20380;-57
2022/06/06 05:24:08;;;;;;;6.07;5.45;;;;;;;;;;4992094;28;20482;-56
2022/06/06 05:26:34;;;;;;;7.50;5.50;;;;;;;;;;4999343;28;20428;-56
2022/06/06 05:29:10;;;;;;;5.80;5.20;;;;;;;;;;4994736;28;20445;-56
2022/06/06 05:31:42;;;;;;;6.05;5.45;;;;;;;;;;4998797;28;20400;-56
2022/06/06 05:34:10;;;;;;;6.05;5.35;;;;;;;;;;4998686;28;20410;-57
2022/06/06 05:36:36;;;;;;;5.90;5.30;;;;;;;;;;4995796;28;20413;-56
2022/06/06 05:39:08;;;;;;;5.50;4.93;;;;;;;;;;4995246;28;21029;-56
2022/06/06 05:41:53;;;;;;;5.80;4.75;;;;;;;;;;5000143;28;20400;-57
2022/06/06 05:44:34;;;;;;;5.07;4.57;;;;;;;;;;4999718;28;20444;-56
2022/06/06 05:47:09;;;;;;;5.35;4.78;;;;;;;;;;5003518;28;20437;-57
2022/06/06 05:49:44;;;;;;;5.25;4.75;;;;;;;;;;4996451;28;20791;-56
2022/06/06 05:52:15;;;;;;;8.48;4.57;;;;;;;;;;4996682;28;20498;-56
2022/06/06 05:54:59;;;;;;;5.32;4.80;;;;;;;;;;4994712;28;20521;-57
2022/06/06 05:57:28;;;;;;;6.35;5.00;;;;;;;;;;4992850;28;20774;-56
2022/06/06 06:00:06;;;;;;;6.17;4.50;;;;;;;;;;4995287;28;20898;-56
2022/06/06 06:02:44;;;;;;;5.57;4.30;;;;;;;;;;4997967;28;20398;-56
2022/06/06 06:05:16;;;;;;;6.75;4.30;;;;;;;;;;4997952;28;20429;-56
2022/06/06 06:07:52;;;;;;;5.25;4.03;;;;;;;;;;4995096;28;20418;-56
2022/06/06 06:10:31;;;;;;;6.10;3.88;;;;;;;;;;4997851;28;20410;-56
2022/06/06 06:13:06;;;;;;;5.57;3.90;;;;;;;;;;4996860;28;20901;-56
2022/06/06 06:15:39;;;;;;;3.80;3.20;;;;;;;;;;4998647;28;20617;-56
2022/06/06 06:18:07;;;;;;;4.68;3.60;;;;;;;;;;5000338;28;20465;-56
2022/06/06 06:20:42;;;;;;;3.88;3.20;;;;;;;;;;5002949;28;21012;-57
2022/06/06 06:23:09;;;;;;;5.35;3.47;;;;;;;;;;4995600;28;20461;-57
2022/06/06 06:25:36;;;;;;;4.18;3.25;;;;;;;;;;4996645;28;20393;-56
2022/06/06 06:28:06;;;;;;;3.73;3.30;;;;;;;;;;4993265;28;20516;-57
2022/06/06 06:30:40;;;;;;;4.13;3.15;;;;;;;;;;4994702;28;20468;-57
2022/06/06 06:33:06;;;;;;;4.32;3.03;;;;;;;;;;4998285;28;20392;-57
2022/06/06 06:35:41;;;;;;;3.47;2.95;;;;;;;;;;5000060;28;20386;-57
2022/06/06 06:38:23;;;;;;;3.67;2.75;;;;;;;;;;4992395;28;21352;-57
2022/06/06 06:40:53;;;;;;;3.63;2.92;;;;;;;;;;4993025;28;20404;-57
2022/06/06 06:43:38;;;;;;;3.77;2.60;;;;;;;;;;4994804;28;20487;-57
2022/06/06 06:46:07;;;;;;;3.47;2.40;;;;;;;;;;4991954;28;20414;-57
2022/06/06 06:48:35;;;;;;;3.15;2.60;;;;;;;;;;4997435;28;20504;-56
2022/06/06 06:51:07;;;;;;;3.17;2.55;;;;;;;;;;4996504;28;20428;-56
2022/06/06 06:53:40;;;;;;;3.50;2.27;;;;;;;;;;4994334;28;20405;-57
2022/06/06 06:56:26;;;;;;;3.03;2.33;;;;;;;;;;4998143;28;20428;-56
2022/06/06 06:58:59;;;;;;;2.53;2.20;;;;;;;;;;4994599;28;20405;-55
2022/06/06 07:01:31;;;;;;;2.80;2.35;;;;;;;;;;4994496;28;20481;-57
2022/06/06 07:09:45;;;;;;;2.63;2.30;;;;;;;;;;4993874;28;20484;-57
2022/06/06 07:12:20;;;;;;;2.10;1.95;;;;;;;;;;4995647;28;20414;-57
2022/06/06 07:14:56;;;;;;;2.28;2.08;;;;;;;;;;4995411;28;21395;-56
2022/06/06 07:17:21;;;;;;;2.87;2.03;;;;;;;;;;4996337;28;20431;-57
2022/06/06 07:20:06;;;;;;;2.30;2.10;;;;;;;;;;4994975;28;20973;-57
2022/06/06 07:25:24;;;;;;;2.40;2.00;;;;;;;;;;4996364;28;20726;-57
2022/06/06 07:27:50;;;;;;;2.22;1.92;;;;;;;;;;4993593;28;20511;-57
2022/06/06 07:30:17;;;;;;;2.28;1.98;;;;;;;;;;4992569;28;20482;-57
2022/06/06 07:33:06;;;;;;;3.33;1.98;;;;;;;;;;4993292;28;20428;-56
2022/06/06 07:35:39;;;;;;;2.22;2.03;;;;;;;;;;4990273;28;20413;-54
2022/06/06 07:38:13;;;;;;;2.05;1.85;;;;;;;;;;5000218;28;20903;-55
2022/06/06 07:40:46;;;;;;;2.15;1.95;;;;;;;;;;5001401;28;20410;-57
2022/06/06 07:43:16;;;;;;;3.38;1.80;;;;;;;;;;4992881;28;20911;-57
2022/06/06 07:45:47;;;;;;;1.75;1.65;;;;;;;;;;5000924;28;20467;-57
2022/06/06 07:48:16;;;;;;;3.40;1.73;;;;;;;;;;4995690;28;20413;-56
2022/06/06 07:50:52;;;;;;;3.55;2.10;;;;;;;;;;5002376;28;20385;-56
2022/06/06 07:53:25;;;;;;;2.22;1.70;;;;;;;;;;4996069;28;20390;-57
2022/06/06 07:55:59;;;;;;;1.83;1.60;;;;;;;;;;4994368;28;20495;-56
2022/06/06 07:58:29;;;;;;;1.90;1.50;;;;;;;;;;4996268;28;20469;-56
2022/06/06 08:01:09;;;;;;;2.28;1.60;;;;;;;;;;4990452;28;20491;-56
2022/06/06 08:03:44;;;;;;;1.70;1.60;;;;;;;;;;4986781;28;20419;-56
2022/06/06 08:06:33;;;;;;;4.22;1.70;;;;;;;;;;4992533;28;20434;-56
2022/06/06 08:08:59;;;;;;;1.92;1.80;;;;;;;;;;4989026;28;20497;-57
2022/06/06 08:11:44;;;;;;;1.50;1.40;;;;;;;;;;4994961;28;20999;-56
2022/06/06 08:14:33;;;;;;;2.47;1.70;;;;;;;;;;4994558;28;20402;-57
2022/06/06 08:17:15;;;;;;;2.70;1.70;;;;;;;;;;4997779;28;20413;-57
2022/06/06 08:20:01;;;;;;;2.63;1.60;;;;;;;;;;4990519;28;20406;-57
2022/06/06 08:22:27;;;;;;;1.77;1.67;;;;;;;;;;4993416;28;20436;-56
2022/06/06 08:24:54;;;;;;;2.85;1.92;;;;;;;;;;4993169;28;20852;-57
2022/06/06 08:27:20;;;;;;;1.70;1.60;;;;;;;;;;4995231;28;20426;-57
2022/06/06 08:29:46;;;;;;;1.70;1.60;;;;;;;;;;4996330;28;20398;-57
2022/06/06 08:32:12;;;;;;;2.53;1.80;;;;;;;;;;4995386;28;20390;-56
2022/06/06 08:34:38;;;;;;;1.60;1.50;;;;;;;;;;4993783;28;20413;-57
2022/06/06 08:37:07;;;;;;;1.80;1.60;;;;;;;;;;5000646;28;20428;-56
2022/06/06 08:39:33;;;;;;;1.50;1.40;;;;;;;;;;4995794;28;20496;-57
2022/06/06 08:42:09;;;;;;;1.93;1.60;;;;;;;;;;4995101;28;20381;-57
2022/06/06 08:44:50;;;;;;;3.50;1.60;;;;;;;;;;4989527;28;20398;-57
2022/06/06 08:47:16;;;;;;;2.33;1.40;;;;;;;;;;4995680;28;20401;-56
2022/06/06 08:53:03;;;;;;;1.80;1.60;;;;;;;;;;4999628;28;20412;-56
2022/06/06 08:55:32;;;;;;;2.50;1.50;;;;;;;;;;4995653;28;20410;-56
2022/06/06 08:58:34;;;;;;;1.40;1.30;;;;;;;;;;4994147;28;20449;-56
2022/06/06 09:01:04;;;;;;;3.00;1.35;;;;;;;;;;4941592;28;20422;-56
2022/06/06 09:03:46;;;;;;;1.90;1.55;;;;;;;;;;4981208;28;20962;-56
2022/06/06 09:06:26;;;;;;;1.55;1.40;;;;;;;;;;4992510;28;20514;-56
2022/06/06 09:08:55;;;;;;;1.80;1.30;;;;;;;;;;5000373;28;20436;-56
2022/06/06 09:11:44;;;;;;;1.52;1.42;;;;;;;;;;4997377;28;20413;-57
2022/06/06 09:14:29;;;;;;;1.58;1.40;;;;;;;;;;4972189;28;20412;-57
2022/06/06 09:17:13;;;;;;;1.27;1.20;;;;;;;;;;4996995;28;20425;-55
2022/06/06 09:19:47;;;;;;;1.67;1.23;;;;;;;;;;5003810;28;20446;-56
2022/06/06 09:22:44;;;;;;;1.63;1.20;;;;;;;;;;5001250;28;20813;-56
2022/06/06 09:25:22;;;;;;;1.40;1.30;;;;;;;;;;4987001;28;20886;-57
2022/06/06 09:28:00;;;;;;;2.10;1.30;;;;;;;;;;4999830;28;20739;-57
2022/06/06 09:30:44;;;;;;;1.30;1.20;;;;;;;;;;4998082;28;20917;-57
2022/06/06 09:33:30;;;;;;;1.48;1.33;;;;;;;;;;5003532;28;20406;-56
2022/06/06 09:36:05;;;;;;;1.80;1.30;;;;;;;;;;4972113;28;20433;-57
2022/06/06 09:38:46;;;;;;;1.92;1.35;;;;;;;;;;4997593;28;20406;-57
2022/06/06 09:41:25;;;;;;;1.55;1.10;;;;;;;;;;4998432;28;20772;-56
2022/06/06 09:44:05;;;;;;;1.57;1.33;;;;;;;;;;4995924;28;20501;-56
2022/06/06 09:46:33;;;;;;;2.17;1.27;;;;;;;;;;4997825;28;20418;-55
2022/06/06 09:49:18;;;;;;;1.35;1.20;;;;;;;;;;4998066;28;20400;-56
2022/06/06 09:51:47;;;;;;;1.50;1.27;;;;;;;;;;4996500;28;20412;-57
2022/06/06 10:00:32;;;;;;;1.20;1.10;;;;;;;;;;4997643;28;20835;-56
2022/06/06 10:03:16;;;;;;;1.27;1.08;;;;;;;;;;4997267;28;20402;-57
2022/06/06 10:06:00;;;;;;;1.10;1.00;;;;;;;;;;4995946;28;20400;-57
2022/06/06 10:08:33;;;;;;;1.20;1.00;;;;;;;;;;4995870;28;20389;-56
2022/06/06 10:11:19;;;;;;;1.65;1.38;;;;;;;;;;4978806;28;20411;-56
2022/06/06 10:14:00;;;;;;;2.42;0.93;;;;;;;;;;4996923;28;20495;-56
2022/06/06 10:16:33;;;;;;;1.30;1.20;;;;;;;;;;4997766;28;20414;-56
2022/06/06 10:19:15;;;;;;;1.70;1.05;;;;;;;;;;4996307;28;20892;-55
2022/06/06 10:22:00;;;;;;;2.17;1.67;;;;;;;;;;4997392;28;20549;-56
2022/06/06 10:24:27;;;;;;;1.90;1.70;;;;;;;;;;4995617;28;20391;-56
2022/06/06 10:26:59;;;;;;;1.23;1.10;;;;;;;;;;4995903;28;20440;-55
2022/06/06 10:29:28;;;;;;;2.20;1.30;;;;;;;;;;4996325;28;20397;-56
2022/06/06 10:32:29;;;;;;;1.52;1.20;;;;;;;;;;4997583;28;20426;-56
2022/06/06 10:35:14;;;;;;;1.73;1.30;;;;;;;;;;4945131;28;20407;-56
2022/06/06 10:37:40;;;;;;;1.23;1.13;;;;;;;;;;4992491;28;20522;-56
2022/06/06 10:40:24;;;;;;;1.60;1.40;;;;;;;;;;4996414;28;20410;-56
2022/06/06 10:43:08;;;;;;;2.03;1.38;;;;;;;;;;4994983;28;20739;-55
2022/06/06 10:45:54;;;;;;;1.67;1.40;;;;;;;;;;4998654;28;20753;-57
2022/06/06 10:48:33;;;;;;;1.48;1.38;;;;;;;;;;4994796;28;20415;-55
2022/06/06 10:54:02;;;;;;;1.75;1.23;;;;;;;;;;4995082;28;20439;-57
2022/06/06 10:56:34;;;;;;;1.80;1.38;;;;;;;;;;4995496;28;20466;-56
2022/06/06 10:59:19;;;;;;;1.63;1.30;;;;;;;;;;4999172;28;20399;-56
2022/06/06 11:01:51;;;;;;;4.65;1.60;;;;;;;;;;4970689;28;20394;-55
2022/06/06 11:04:31;;;;;;;2.53;1.33;;;;;;;;;;4968394;28;20417;-53
2022/06/06 11:07:07;;;;;;;2.10;1.20;;;;;;;;;;4983397;28;20408;-54
2022/06/06 11:09:40;;;;;;;1.58;1.15;;;;;;;;;;4985088;28;20775;-54
2022/06/06 11:12:15;;;;;;;1.30;1.20;;;;;;;;;;4984403;28;20560;-54
2022/06/06 11:14:44;;;;;;;2.60;1.30;;;;;;;;;;4984068;28;20411;-54
2022/06/06 11:17:28;;;;;;;16.40;2.20;;;;;;;;;;4982626;28;20466;-53
2022/06/06 11:20:09;;;;;;;4.75;1.30;;;;;;;;;;4979121;28;20482;-55
2022/06/06 11:22:54;;;;;;;1.50;1.13;;;;;;;;;;4988604;28;20478;-55
2022/06/06 11:25:21;;;;;;;2.40;1.30;;;;;;;;;;4991275;28;20766;-55
2022/06/06 11:28:02;;;;;;;2.67;1.40;;;;;;;;;;4994581;28;20209;-56
2022/06/06 11:30:35;;;;;;;1.60;1.48;;;;;;;;;;4993272;28;20748;-55
2022/06/06 11:33:01;;;;;;;2.60;1.30;;;;;;;;;;4987231;28;20770;-56
2022/06/06 11:35:31;;;;;;;1.70;1.30;;;;;;;;;;4988530;28;20406;-54
2022/06/06 11:38:03;;;;;;;1.55;1.45;;;;;;;;;;4994294;28;20508;-56
2022/06/06 11:40:53;;;;;;;1.92;1.40;;;;;;;;;;4992199;28;20831;-55
2022/06/06 11:43:32;;;;;;;1.58;1.40;;;;;;;;;;4985749;28;20444;-56
2022/06/06 11:46:07;;;;;;;5.63;1.90;;;;;;;;;;4987389;28;20492;-57
2022/06/06 11:48:41;;;;;;;7.32;2.13;;;;;;;;;;4980741;28;20400;-54
2022/06/06 11:51:16;;;;;;;5.60;1.80;;;;;;;;;;4986735;28;20500;-56
2022/06/06 11:53:42;;;;;;;7.47;2.20;;;;;;;;;;4997353;28;20416;-58
2022/06/06 11:56:08;;;;;;;8.73;1.90;;;;;;;;;;4991111;28;20421;-57
2022/06/06 11:58:40;;;;;;;7.72;2.10;;;;;;;;;;4987758;28;20421;-57
2022/06/06 12:01:25;;;;;;;4.38;2.20;;;;;;;;;;4986056;28;20484;-55
2022/06/06 12:03:51;;;;;;;5.22;1.65;;;;;;;;;;4983093;28;20441;-58
2022/06/06 12:06:26;;;;;;;2.47;1.70;;;;;;;;;;4988687;28;20508;-60
2022/06/06 12:09:07;;;;;;;2.03;1.60;;;;;;;;;;4989212;28;20414;-59
2022/06/06 12:11:39;;;;;;;3.28;1.60;;;;;;;;;;4989661;28;21012;-58
2022/06/06 12:14:14;;;;;;;2.67;1.45;;;;;;;;;;4991646;28;20415;-59
2022/06/06 12:16:52;;;;;;;4.35;1.50;;;;;;;;;;4979630;28;20980;-59
2022/06/06 12:19:40;;;;;;;2.40;1.60;;;;;;;;;;4988798;28;20993;-58
2022/06/06 12:22:06;;;;;;;2.38;1.33;;;;;;;;;;4984643;28;20432;-59
2022/06/06 12:24:51;;;;;;;3.17;1.50;;;;;;;;;;4986900;28;20479;-58
2022/06/06 12:27:26;;;;;;;2.08;1.60;;;;;;;;;;4991622;28;20452;-58
2022/06/06 12:30:11;;;;;;;1.60;1.50;;;;;;;;;;4990495;28;20770;-59
2022/06/06 12:32:55;;;;;;;2.95;1.63;;;;;;;;;;4993386;28;20418;-58
2022/06/06 12:35:22;;;;;;;1.50;1.30;;;;;;;;;;4991932;28;20444;-58
2022/06/06 12:37:51;;;;;;;4.10;1.50;;;;;;;;;;4992516;28;20416;-60
2022/06/06 12:40:20;;;;;;;3.10;1.50;;;;;;;;;;4981468;28;20413;-58
2022/06/06 12:42:46;;;;;;;1.90;1.40;;;;;;;;;;4981995;28;20437;-58
2022/06/06 12:45:12;;;;;;;1.80;1.40;;;;;;;;;;4990138;28;20460;-58
2022/06/06 12:47:46;;;;;;;2.07;1.40;;;;;;;;;;4987869;28;20412;-59
2022/06/06 12:50:31;;;;;;;1.33;1.23;;;;;;;;;;4987739;28;20416;-59
2022/06/06 12:53:16;;;;;;;1.98;1.48;;;;;;;;;;4987986;28;20896;-60
2022/06/06 12:58:46;;;;;;;1.80;1.40;;;;;;;;;;4992415;28;20490;-58
2022/06/06 13:04:18;;;;;;;3.60;1.27;;;;;;;;;;4983153;28;20463;-57
2022/06/06 13:06:44;;;;;;;1.65;1.35;;;;;;;;;;4986415;28;20435;-58
2022/06/06 13:09:29;;;;;;;1.50;1.30;;;;;;;;;;4993703;28;20406;-58
2022/06/06 13:12:14;;;;;;;3.95;1.40;;;;;;;;;;4988311;28;20414;-58
2022/06/06 13:14:57;;;;;;;4.43;1.70;;;;;;;;;;4992005;28;20421;-58
2022/06/06 13:17:26;;;;;;;5.35;1.60;;;;;;;;;;4985387;28;21300;-58
2022/06/06 13:19:59;;;;;;;2.83;1.40;;;;;;;;;;4995689;28;20409;-57
2022/06/06 13:22:25;;;;;;;1.48;1.30;;;;;;;;;;4996567;28;20418;-58
2022/06/06 13:24:57;;;;;;;3.50;1.30;;;;;;;;;;4991439;28;20919;-57
2022/06/06 13:27:27;;;;;;;1.43;1.33;;;;;;;;;;4985899;28;20450;-58
2022/06/06 13:29:53;;;;;;;3.08;1.30;;;;;;;;;;4983162;28;20509;-59
2022/06/06 13:32:35;;;;;;;2.65;1.30;;;;;;;;;;4986121;28;20405;-59
2022/06/06 13:35:13;;;;;;;4.15;1.40;;;;;;;;;;4983570;28;20450;-58
2022/06/06 13:37:54;;;;;;;1.87;1.23;;;;;;;;;;4973651;28;21605;-60
2022/06/06 13:40:41;;;;;;;2.00;1.65;;;;;;;;;;4981450;28;20409;-58
2022/06/06 13:43:26;;;;;;;1.45;1.35;;;;;;;;;;4977716;28;20550;-59
2022/06/06 13:46:07;;;;;;;2.30;1.25;;;;;;;;;;4987593;28;20528;-58
2022/06/06 13:48:52;;;;;;;2.00;1.30;;;;;;;;;;4993633;28;20500;-59
2022/06/06 13:51:21;;;;;;;2.00;1.30;;;;;;;;;;4990580;28;20491;-58
2022/06/06 13:54:01;;;;;;;1.88;1.40;;;;;;;;;;4993055;28;20915;-58
2022/06/06 13:56:38;;;;;;;1.42;1.20;;;;;;;;;;4983892;28;20548;-58
2022/06/06 13:59:09;;;;;;;2.13;1.40;;;;;;;;;;4980415;28;21267;-57
2022/06/06 14:01:35;;;;;;;3.10;1.50;;;;;;;;;;4985372;28;20412;-59
2022/06/06 14:04:07;;;;;;;1.73;1.40;;;;;;;;;;4982046;28;20448;-58
2022/06/06 14:06:52;;;;;;;3.05;1.40;;;;;;;;;;4979749;28;20439;-59
2022/06/06 14:09:19;;;;;;;3.08;1.50;;;;;;;;;;4986135;28;21297;-58
2022/06/06 14:11:56;;;;;;;3.33;1.30;;;;;;;;;;4984470;28;20507;-60
2022/06/06 14:14:22;;;;;;;1.87;1.23;;;;;;;;;;4977970;28;20418;-59
2022/06/06 14:16:49;;;;;;;1.50;1.30;;;;;;;;;;4978717;28;20902;-59
2022/06/06 14:19:19;;;;;;;4.88;1.42;;;;;;;;;;4991490;28;20446;-58
2022/06/06 14:21:48;;;;;;;4.47;1.52;;;;;;;;;;4986796;28;20429;-59
2022/06/06 14:24:18;;;;;;;1.30;1.20;;;;;;;;;;4979871;28;20429;-59
2022/06/06 14:26:58;;;;;;;2.28;1.50;;;;;;;;;;4988209;28;21005;-59
2022/06/06 14:29:33;;;;;;;1.95;1.50;;;;;;;;;;4981959;28;20789;-58
2022/06/06 14:32:00;;;;;;;1.40;1.30;;;;;;;;;;4983495;28;20467;-60
2022/06/06 14:34:27;;;;;;;2.00;1.40;;;;;;;;;;4987595;28;20448;-58
2022/06/06 14:37:06;;;;;;;3.17;1.33;;;;;;;;;;4981493;28;20780;-59
2022/06/06 14:39:32;;;;;;;1.83;1.40;;;;;;;;;;4975715;28;20409;-59
2022/06/06 14:41:58;;;;;;;2.95;1.30;;;;;;;;;;4999783;28;20415;-60
2022/06/06 14:44:44;;;;;;;2.57;1.50;;;;;;;;;;4987503;28;20842;-59
2022/06/06 14:47:15;;;;;;;2.33;1.47;;;;;;;;;;4989026;28;20959;-60
2022/06/06 14:49:42;;;;;;;1.65;1.40;;;;;;;;;;4985627;28;20771;-59
2022/06/06 14:52:10;;;;;;;3.30;1.50;;;;;;;;;;4983564;28;20418;-60
2022/06/06 14:54:36;;;;;;;1.90;1.20;;;;;;;;;;4992987;28;20483;-60
2022/06/06 14:57:05;;;;;;;2.47;1.40;;;;;;;;;;4988700;28;20778;-59
2022/06/06 14:59:38;;;;;;;3.00;1.35;;;;;;;;;;4990313;28;20406;-60
2022/06/06 15:02:13;;;;;;;4.55;1.58;;;;;;;;;;4983461;28;20902;-60
2022/06/06 15:04:40;;;;;;;6.28;1.60;;;;;;;;;;4984965;28;20808;-60
2022/06/06 15:07:06;;;;;;;3.00;1.40;;;;;;;;;;4990634;28;20761;-60
2022/06/06 15:09:32;;;;;;;3.38;1.20;;;;;;;;;;4985575;28;20541;-60
2022/06/06 15:11:58;;;;;;;1.55;1.35;;;;;;;;;;4985416;28;20404;-62
2022/06/06 15:14:35;;;;;;;2.67;1.30;;;;;;;;;;4989978;28;20428;-56
2022/06/06 15:17:03;;;;;;;1.55;1.20;;;;;;;;;;4983337;28;20432;-59
2022/06/06 15:19:40;;;;;;;2.72;1.50;;;;;;;;;;4988145;28;20414;-58
2022/06/06 15:22:06;;;;;;;2.17;1.60;;;;;;;;;;4987583;28;20760;-57
2022/06/06 15:24:34;;;;;;;3.15;1.90;;;;;;;;;;4990061;28;20409;-58
2022/06/06 15:27:08;;;;;;;2.70;1.50;;;;;;;;;;4988385;28;20893;-61
2022/06/06 15:29:37;;;;;;;2.00;1.45;;;;;;;;;;4981840;28;20418;-60
2022/06/06 15:32:03;;;;;;;5.15;1.80;;;;;;;;;;4977678;28;20916;-61
2022/06/06 15:34:31;;;;;;;3.53;1.40;;;;;;;;;;4987093;28;20910;-61
2022/06/06 15:37:03;;;;;;;3.13;1.40;;;;;;;;;;4997609;28;20422;-60
2022/06/06 15:39:49;;;;;;;2.10;1.40;;;;;;;;;;4993953;28;20397;-60
2022/06/06 15:42:31;;;;;;;1.73;1.20;;;;;;;;;;4988213;28;20523;-61
2022/06/06 15:45:15;;;;;;;1.90;1.20;;;;;;;;;;4989903;28;20413;-60
2022/06/06 15:48:02;;;;;;;2.30;1.20;;;;;;;;;;4984614;28;20408;-59